createdAt,value
2023-01-23T00:01:30.998Z,8.45
2023-01-23T00:04:00.612Z,8.88
2023-01-23T00:06:29.247Z,8.80
2023-01-23T00:08:57.263Z,9.38
2023-01-23T00:11:27.147Z,8.88
2023-01-23T00:13:57.690Z,8.48
2023-01-23T00:16:27.241Z,8.80
2023-01-23T00:18:55.111Z,8.13
2023-01-23T00:21:25.941Z,8.68
2023-01-23T00:23:55.795Z,8.52
2023-01-23T00:26:25.188Z,9.43
2023-01-23T00:28:53.357Z,8.55
2023-01-23T00:31:25.742Z,8.45
2023-01-23T00:33:56.189Z,8.35
2023-01-23T00:36:23.999Z,8.45
2023-01-23T00:38:51.838Z,8.60
2023-01-23T00:41:19.666Z,9.30
2023-01-23T00:43:48.317Z,8.45
2023-01-23T00:46:17.963Z,8.85
2023-01-23T00:48:47.279Z,9.18
2023-01-23T00:51:15.185Z,8.40
2023-01-23T00:53:43.172Z,8.57
2023-01-23T00:56:11.042Z,8.90
2023-01-23T00:58:40.510Z,8.90
2023-01-23T01:01:09.105Z,8.60
2023-01-23T01:03:37.822Z,8.13
2023-01-23T01:06:07.200Z,8.75
2023-01-23T01:08:35.031Z,8.18
2023-01-23T01:11:02.865Z,8.85
2023-01-23T01:13:32.095Z,9.00
2023-01-23T01:16:01.818Z,8.80
2023-01-23T01:18:30.801Z,9.15
2023-01-23T01:20:59.065Z,8.85
2023-01-23T01:23:28.399Z,8.40
2023-01-23T01:26:00.118Z,9.35
2023-01-23T01:28:30.241Z,9.38
2023-01-23T01:30:58.479Z,8.98
2023-01-23T01:33:28.616Z,9.25
2023-01-23T01:35:57.255Z,9.45
2023-01-23T01:38:25.430Z,9.65
2023-01-23T01:40:54.670Z,9.00
2023-01-23T01:43:24.803Z,9.32
2023-01-23T01:46:20.886Z,8.55
2023-01-23T01:49:01.932Z,8.82
2023-01-23T01:51:32.912Z,8.85
2023-01-23T01:54:07.206Z,9.65
2023-01-23T01:56:41.812Z,9.27
2023-01-23T01:59:12.108Z,9.07
2023-01-23T02:01:41.815Z,8.63
2023-01-23T02:04:10.833Z,9.15
2023-01-23T02:06:38.639Z,8.50
2023-01-23T02:09:11.870Z,9.10
2023-01-23T02:11:41.158Z,8.68
2023-01-23T02:14:10.268Z,9.10
2023-01-23T02:16:41.139Z,9.60
2023-01-23T02:19:18.293Z,9.88
2023-01-23T02:21:49.270Z,9.25
2023-01-23T02:24:24.783Z,9.20
2023-01-23T02:26:55.230Z,9.05
2023-01-23T02:29:25.781Z,9.65
2023-01-23T02:31:56.795Z,9.57
2023-01-23T02:34:26.091Z,9.90
2023-01-23T02:36:58.595Z,9.57
2023-01-23T02:39:27.571Z,9.48
2023-01-23T02:41:58.797Z,9.10
2023-01-23T02:44:40.959Z,9.43
2023-01-23T02:47:12.353Z,8.90
2023-01-23T02:49:42.744Z,9.85
2023-01-23T02:52:10.980Z,8.48
2023-01-23T02:54:40.351Z,9.48
2023-01-23T02:57:09.634Z,9.80
2023-01-23T02:59:54.806Z,8.35
2023-01-23T03:02:22.818Z,9.13
2023-01-23T03:04:50.686Z,9.35
2023-01-23T03:07:18.471Z,9.88
2023-01-23T03:09:48.748Z,10.45
2023-01-23T03:12:18.230Z,9.02
2023-01-23T03:14:46.142Z,9.88
2023-01-23T03:17:14.873Z,9.05
2023-01-23T03:19:43.130Z,9.43
2023-01-23T03:22:11.053Z,9.00
2023-01-23T03:24:40.204Z,9.35
2023-01-23T03:27:08.635Z,9.48
2023-01-23T03:30:02.454Z,9.65
2023-01-23T03:32:30.846Z,10.13
2023-01-23T03:34:59.377Z,8.90
2023-01-23T03:37:27.351Z,9.15
2023-01-23T03:40:13.783Z,9.23
2023-01-23T03:42:41.797Z,9.30
2023-01-23T03:45:13.321Z,8.65
2023-01-23T03:47:42.577Z,9.30
2023-01-23T03:50:11.344Z,9.43
2023-01-23T03:52:40.577Z,10.18
2023-01-23T03:55:09.804Z,9.02
2023-01-23T03:57:38.547Z,9.55
2023-01-23T04:00:09.938Z,9.55
2023-01-23T04:02:51.035Z,9.57
2023-01-23T04:05:18.863Z,9.57
2023-01-23T04:07:46.658Z,9.63
2023-01-23T04:10:15.185Z,9.90
2023-01-23T04:12:45.254Z,9.15
2023-01-23T04:15:13.739Z,10.45
2023-01-23T04:17:42.553Z,9.95
2023-01-23T04:20:13.849Z,9.90
2023-01-23T04:22:43.610Z,9.10
2023-01-23T04:25:11.823Z,10.02
2023-01-23T04:27:39.762Z,10.77
2023-01-23T04:30:10.435Z,9.80
2023-01-23T04:32:38.529Z,9.73
2023-01-23T04:35:07.225Z,10.35
2023-01-23T04:37:38.974Z,9.38
2023-01-23T04:40:08.893Z,9.50
2023-01-23T04:42:45.808Z,9.35
2023-01-23T04:45:27.762Z,9.05
2023-01-23T04:48:18.453Z,9.90
2023-01-23T04:50:46.248Z,9.07
2023-01-23T04:53:15.516Z,9.65
2023-01-23T04:55:44.431Z,9.85
2023-01-23T04:58:15.306Z,10.00
2023-01-23T05:00:43.151Z,9.98
2023-01-23T05:03:11.040Z,9.93
2023-01-23T05:05:44.236Z,10.90
2023-01-23T05:08:12.648Z,10.43
2023-01-23T05:10:43.444Z,10.30
2023-01-23T05:13:14.142Z,9.82
2023-01-23T05:15:41.939Z,10.07
2023-01-23T05:18:09.803Z,10.38
2023-01-23T05:20:37.728Z,9.80
2023-01-23T05:23:06.204Z,11.30
2023-01-23T05:25:43.160Z,10.02
2023-01-23T05:28:11.863Z,10.57
2023-01-23T05:30:45.817Z,9.68
2023-01-23T05:33:23.002Z,10.50
2023-01-23T05:35:51.300Z,10.07
2023-01-23T05:38:19.780Z,10.20
2023-01-23T05:40:49.056Z,9.90
2023-01-23T05:43:36.436Z,10.63
2023-01-23T05:46:21.608Z,10.18
2023-01-23T05:48:53.286Z,10.57
2023-01-23T05:51:23.237Z,10.48
2023-01-23T05:53:52.155Z,10.07
2023-01-23T05:56:21.311Z,9.40
2023-01-23T05:59:07.468Z,10.77
2023-01-23T06:01:42.125Z,10.23
2023-01-23T06:04:30.182Z,10.48
2023-01-23T06:07:17.902Z,10.25
2023-01-23T06:09:46.846Z,10.40
2023-01-23T06:12:16.049Z,10.95
2023-01-23T06:14:43.904Z,10.98
2023-01-23T06:17:13.435Z,9.63
2023-01-23T06:19:41.264Z,10.55
2023-01-23T06:22:09.760Z,10.63
2023-01-23T06:24:55.762Z,10.57
2023-01-23T06:27:24.950Z,10.25
2023-01-23T06:29:53.358Z,10.50
2023-01-23T06:32:23.441Z,15.20
2023-01-23T06:34:52.214Z,19.10
2023-01-23T06:37:20.077Z,11.68
2023-01-23T06:39:47.867Z,10.43
2023-01-23T06:42:17.021Z,10.40
2023-01-23T06:44:50.633Z,10.93
2023-01-23T06:47:18.965Z,11.10
2023-01-23T06:49:52.057Z,9.95
2023-01-23T06:52:19.975Z,11.48
2023-01-23T06:54:48.617Z,10.65
2023-01-23T06:57:17.325Z,11.40
2023-01-23T06:59:47.602Z,11.25
2023-01-23T07:02:18.308Z,10.50
2023-01-23T07:04:48.690Z,10.68
2023-01-23T07:07:16.474Z,10.45
2023-01-23T07:09:45.244Z,10.68
2023-01-23T07:12:25.343Z,10.43
2023-01-23T07:14:53.159Z,11.15
2023-01-23T07:17:30.414Z,11.05
2023-01-23T07:19:58.290Z,10.88
2023-01-23T07:22:26.353Z,10.98
2023-01-23T07:24:54.186Z,11.05
2023-01-23T07:27:22.001Z,11.70
2023-01-23T07:29:49.789Z,10.73
2023-01-23T07:32:17.641Z,11.75
2023-01-23T07:34:46.774Z,11.45
2023-01-23T07:37:14.633Z,11.25
2023-01-23T07:39:42.402Z,10.50
2023-01-23T07:42:10.519Z,12.25
2023-01-23T07:44:42.309Z,10.77
2023-01-23T07:47:10.548Z,11.50
2023-01-23T07:49:38.328Z,12.00
2023-01-23T07:52:07.790Z,11.82
2023-01-23T07:54:35.710Z,11.57
2023-01-23T07:57:03.623Z,11.98
2023-01-23T07:59:31.415Z,11.98
2023-01-23T08:01:59.413Z,11.13
2023-01-23T08:04:27.193Z,12.32
2023-01-23T08:06:55.827Z,11.23
2023-01-23T08:09:26.526Z,11.38
2023-01-23T08:11:54.355Z,10.40
2023-01-23T08:14:22.241Z,11.98
2023-01-23T08:16:51.174Z,11.52
2023-01-23T08:19:19.099Z,11.68
2023-01-23T08:21:47.912Z,11.77
2023-01-23T08:24:16.069Z,11.73
2023-01-23T08:26:45.446Z,10.82
2023-01-23T08:29:13.640Z,11.63
2023-01-23T08:31:41.700Z,13.30
2023-01-23T08:34:09.521Z,12.63
2023-01-23T08:36:37.437Z,12.52
2023-01-23T08:39:05.778Z,11.98
2023-01-23T08:41:33.557Z,12.52
2023-01-23T08:44:03.917Z,13.18
2023-01-23T08:46:31.787Z,12.60
2023-01-23T08:48:59.610Z,12.82
2023-01-23T08:51:27.852Z,12.45
2023-01-23T08:53:55.692Z,13.02
2023-01-23T08:56:25.080Z,12.13
2023-01-23T08:58:53.062Z,12.57
2023-01-23T09:01:24.303Z,12.48
2023-01-23T09:03:52.439Z,12.13
2023-01-23T09:06:22.034Z,12.98
2023-01-23T09:08:50.123Z,12.68
2023-01-23T09:11:18.950Z,21.00
2023-01-23T09:13:47.724Z,16.95
2023-01-23T09:16:16.229Z,12.90
2023-01-23T09:18:45.478Z,14.27
2023-01-23T09:21:15.713Z,13.05
2023-01-23T09:23:43.749Z,13.00
2023-01-23T09:26:13.378Z,13.07
2023-01-23T09:28:43.088Z,13.05
2023-01-23T09:31:12.991Z,13.52
2023-01-23T09:33:42.009Z,13.07
2023-01-23T09:36:12.286Z,13.30
2023-01-23T09:38:40.127Z,13.43
2023-01-23T09:41:17.791Z,13.00
2023-01-23T09:43:54.630Z,13.32
2023-01-23T09:46:27.265Z,13.43
2023-01-23T09:49:01.439Z,12.85
2023-01-23T09:51:42.404Z,12.40
2023-01-23T09:54:21.501Z,13.25
2023-01-23T09:56:50.330Z,12.50
2023-01-23T09:59:30.306Z,12.45
2023-01-23T10:01:58.489Z,12.07
2023-01-23T10:04:26.308Z,20.80
2023-01-23T10:07:14.767Z,12.80
2023-01-23T10:10:00.550Z,11.68
2023-01-23T10:12:40.756Z,12.10
2023-01-23T10:15:20.670Z,12.55
2023-01-23T10:18:00.111Z,11.73
2023-01-23T10:20:49.335Z,29.98
2023-01-23T10:25:58.488Z,16.90
2023-01-23T10:28:34.991Z,12.25
2023-01-23T10:31:08.821Z,12.25
2023-01-23T10:33:43.725Z,11.55
2023-01-23T10:36:24.012Z,11.10
2023-01-23T10:39:01.623Z,10.55
2023-01-23T10:41:29.389Z,10.95
2023-01-23T10:43:58.041Z,12.05
2023-01-23T10:46:31.952Z,11.07
2023-01-23T10:49:03.434Z,9.90
2023-01-23T10:51:45.637Z,10.32
2023-01-23T10:54:31.240Z,10.50
2023-01-23T10:57:01.619Z,10.50
2023-01-23T10:59:36.640Z,11.27
2023-01-23T11:02:20.111Z,10.18
2023-01-23T11:04:51.391Z,9.85
2023-01-23T11:12:21.226Z,10.25
2023-01-23T11:14:49.520Z,11.93
2023-01-23T11:17:21.635Z,10.45
2023-01-23T11:19:54.257Z,12.45
2023-01-23T11:22:29.032Z,10.82
2023-01-23T11:24:58.866Z,10.88
2023-01-23T11:27:29.794Z,10.88
2023-01-23T11:30:19.679Z,10.80
2023-01-23T11:32:55.047Z,11.15
2023-01-23T11:35:28.474Z,9.88
2023-01-23T11:37:58.128Z,10.43
2023-01-23T11:40:27.289Z,11.50
2023-01-23T11:42:55.941Z,10.52
2023-01-23T11:48:18.174Z,10.57
2023-01-23T11:50:55.315Z,11.23
2023-01-23T11:53:42.053Z,11.55
2023-01-23T11:56:38.201Z,11.40
2023-01-23T11:59:25.925Z,12.18
2023-01-23T12:02:15.018Z,17.35
2023-01-23T12:05:08.224Z,17.08
2023-01-23T12:07:46.471Z,10.73
2023-01-23T12:10:23.782Z,10.88
2023-01-23T12:13:02.235Z,10.50
2023-01-23T12:15:37.185Z,9.93
2023-01-23T12:18:21.625Z,10.75
2023-01-23T12:20:58.026Z,10.20
2023-01-23T12:23:45.484Z,10.32
2023-01-23T12:26:16.524Z,10.48
2023-01-23T12:29:15.603Z,10.35
2023-01-23T12:32:02.834Z,9.45
2023-01-23T12:34:48.523Z,10.20
2023-01-23T12:37:31.176Z,10.52
2023-01-23T12:40:08.462Z,9.57
2023-01-23T12:42:42.253Z,8.63
2023-01-23T12:45:19.029Z,9.70
2023-01-23T12:47:55.013Z,10.02
2023-01-23T12:50:36.050Z,9.75
2023-01-23T12:53:08.598Z,9.05
2023-01-23T12:55:39.597Z,9.63
2023-01-23T12:58:13.480Z,10.65
2023-01-23T13:00:53.451Z,9.77
2023-01-23T13:03:46.857Z,9.98
2023-01-23T13:06:31.109Z,9.95
2023-01-23T13:09:16.657Z,10.00
2023-01-23T13:11:55.233Z,12.18
2023-01-23T13:14:32.751Z,9.30
2023-01-23T13:17:04.627Z,10.45
2023-01-23T13:19:51.517Z,10.68
2023-01-23T13:22:29.326Z,9.52
2023-01-23T13:25:14.069Z,9.23
2023-01-23T13:27:47.344Z,9.35
2023-01-23T13:30:44.014Z,8.77
2023-01-23T13:33:58.727Z,8.95
2023-01-23T13:36:36.542Z,8.57
2023-01-23T13:39:27.096Z,8.73
2023-01-23T13:42:35.626Z,8.40
2023-01-23T13:45:29.948Z,8.63
2023-01-23T14:20:24.488Z,9.77
2023-01-23T14:22:55.841Z,9.23
2023-01-23T14:28:03.931Z,7.53
2023-01-23T14:30:33.215Z,7.82
2023-01-23T14:33:01.121Z,8.43
2023-01-23T14:35:30.725Z,9.13
2023-01-23T14:38:01.238Z,9.00
2023-01-23T14:40:37.414Z,9.43
2023-01-23T14:43:09.863Z,8.57
2023-01-23T14:45:39.338Z,9.43
2023-01-23T14:48:14.614Z,9.57
2023-01-23T14:50:42.849Z,9.27
2023-01-23T14:53:14.897Z,9.15
2023-01-23T14:55:47.189Z,8.75
2023-01-23T14:58:21.747Z,8.27
2023-01-23T15:00:53.142Z,8.35
2023-01-23T15:03:39.301Z,9.07
2023-01-23T15:06:12.568Z,8.15
2023-01-23T15:08:40.897Z,8.27
2023-01-23T15:11:12.030Z,8.48
2023-01-23T15:13:46.289Z,9.02
2023-01-23T15:16:20.696Z,8.07
2023-01-23T15:18:59.711Z,8.80
2023-01-23T15:21:31.790Z,7.90
2023-01-23T15:24:04.171Z,8.75
2023-01-23T15:26:35.236Z,8.65
2023-01-23T15:29:05.167Z,8.32
2023-01-23T15:31:36.496Z,8.30
2023-01-23T15:34:21.393Z,8.43
2023-01-23T15:36:51.933Z,7.45
2023-01-23T15:39:23.328Z,8.48
2023-01-23T15:41:52.775Z,7.90
2023-01-23T15:44:22.654Z,8.50
2023-01-23T15:46:52.031Z,8.63
2023-01-23T15:49:25.816Z,9.07
2023-01-23T15:51:56.665Z,9.10
2023-01-23T15:54:29.472Z,9.25
2023-01-23T15:57:07.244Z,9.60
2023-01-23T15:59:36.941Z,9.50
2023-01-23T16:02:08.219Z,10.10
2023-01-23T16:04:38.841Z,10.50
2023-01-23T16:07:08.421Z,10.30
2023-01-23T16:09:38.951Z,10.13
2023-01-23T16:12:15.540Z,10.18
2023-01-23T16:14:43.314Z,9.95
2023-01-23T16:17:16.992Z,8.45
2023-01-23T16:19:45.585Z,10.10
2023-01-23T16:22:23.387Z,9.95
2023-01-23T16:24:51.394Z,10.18
2023-01-23T16:27:22.934Z,11.60
2023-01-23T16:29:50.732Z,10.45
2023-01-23T16:32:19.982Z,10.88
2023-01-23T16:34:47.998Z,10.98
2023-01-23T16:37:18.705Z,10.82
2023-01-23T16:39:47.670Z,10.43
2023-01-23T16:42:20.158Z,10.48
2023-01-23T16:44:47.939Z,11.00
2023-01-23T16:47:15.886Z,10.82
2023-01-23T16:49:54.030Z,12.23
2023-01-23T16:52:26.154Z,11.80
2023-01-23T16:54:55.557Z,11.02
2023-01-23T16:57:24.586Z,11.70
2023-01-23T16:59:53.154Z,11.68
2023-01-23T17:02:23.877Z,10.50
2023-01-23T17:04:53.268Z,11.27
2023-01-23T17:07:21.406Z,12.18
2023-01-23T17:09:50.035Z,11.80
2023-01-23T17:12:21.604Z,12.32
2023-01-23T17:14:52.451Z,11.77
2023-01-23T17:19:50.603Z,11.98
2023-01-23T17:22:24.518Z,12.52
2023-01-23T17:24:52.534Z,12.25
2023-01-23T17:27:20.396Z,12.13
2023-01-23T17:29:49.125Z,12.73
2023-01-23T17:32:27.953Z,12.95
2023-01-23T17:34:56.121Z,11.38
2023-01-23T17:37:25.520Z,12.80
2023-01-23T17:39:53.378Z,12.00
2023-01-23T17:42:22.024Z,12.23
2023-01-23T17:44:50.626Z,11.30
2023-01-23T17:47:19.023Z,13.48
2023-01-23T17:49:54.282Z,11.48
2023-01-23T17:52:22.467Z,12.00
2023-01-23T17:54:51.688Z,11.98
2023-01-23T17:57:19.499Z,12.45
2023-01-23T17:59:47.378Z,11.77
2023-01-23T18:02:26.621Z,12.60
2023-01-23T18:04:54.895Z,11.57
2023-01-23T18:07:22.829Z,12.77
2023-01-23T18:09:52.472Z,13.00
2023-01-23T18:12:30.054Z,11.63
2023-01-23T18:15:06.101Z,12.32
2023-01-23T18:17:41.016Z,12.07
2023-01-23T18:20:17.556Z,11.82
2023-01-23T18:22:46.025Z,11.98
2023-01-23T18:25:17.154Z,13.70
2023-01-23T18:27:50.099Z,12.50
2023-01-23T18:30:34.307Z,13.20
2023-01-23T18:33:23.670Z,13.63
2023-01-23T18:36:04.478Z,13.40
2023-01-23T18:38:39.780Z,12.43
2023-01-23T18:41:15.447Z,13.32
2023-01-23T18:43:48.643Z,12.88
2023-01-23T18:46:18.639Z,13.10
2023-01-23T18:48:49.491Z,12.20
2023-01-23T18:51:29.894Z,12.77
2023-01-23T18:54:10.243Z,12.60
2023-01-23T18:56:55.848Z,12.68
2023-01-23T18:59:29.951Z,12.73
2023-01-23T19:02:09.423Z,13.18
2023-01-23T19:04:45.728Z,13.15
2023-01-23T19:07:18.384Z,13.15
2023-01-23T19:09:47.520Z,13.30
2023-01-23T19:12:26.689Z,13.65
2023-01-23T19:15:06.150Z,13.13
2023-01-23T19:17:43.692Z,12.75
2023-01-23T19:20:23.882Z,13.32
2023-01-23T19:23:02.696Z,12.48
2023-01-23T19:25:31.066Z,13.30
2023-01-23T19:28:01.856Z,12.88
2023-01-23T19:30:30.451Z,13.23
2023-01-23T19:32:58.272Z,13.02
2023-01-23T19:35:26.136Z,12.80
2023-01-23T19:37:53.994Z,11.85
2023-01-23T19:40:21.795Z,13.00
2023-01-23T19:42:58.641Z,12.13
2023-01-23T19:45:34.862Z,12.52
2023-01-23T19:48:02.656Z,10.65
2023-01-23T19:50:30.460Z,12.18
2023-01-23T19:53:00.213Z,11.35
2023-01-23T19:55:31.373Z,12.77
2023-01-23T19:57:59.491Z,12.23
2023-01-23T20:00:29.621Z,12.60
2023-01-23T20:02:59.146Z,13.07
2023-01-23T20:05:27.483Z,12.95
2023-01-23T20:07:55.356Z,13.82
2023-01-23T20:10:23.421Z,12.88
2023-01-23T20:12:54.421Z,13.98
2023-01-23T20:15:24.256Z,13.10
2023-01-23T20:17:52.985Z,12.85
2023-01-23T20:20:22.982Z,11.85
2023-01-23T20:22:51.053Z,11.65
2023-01-23T20:25:19.297Z,13.70
2023-01-23T20:27:47.217Z,12.73
2023-01-23T20:30:18.564Z,13.20
2023-01-23T20:32:46.457Z,13.07
2023-01-23T20:35:14.244Z,12.60
2023-01-23T20:37:43.394Z,12.70
2023-01-23T20:40:12.442Z,13.05
2023-01-23T20:42:41.295Z,13.65
2023-01-23T20:45:09.921Z,13.23
2023-01-23T20:47:37.934Z,12.75
2023-01-23T20:50:06.481Z,12.38
2023-01-23T20:52:51.597Z,13.05
2023-01-23T20:55:21.064Z,12.80
2023-01-23T20:58:06.766Z,12.65
2023-01-23T21:00:34.579Z,12.80
2023-01-23T21:03:02.379Z,13.73
2023-01-23T21:05:30.193Z,13.15
2023-01-23T21:07:58.019Z,11.50
2023-01-23T21:10:27.190Z,13.05
2023-01-23T21:12:54.993Z,13.27
2023-01-23T21:15:23.271Z,13.65
2023-01-23T21:17:51.331Z,13.27
2023-01-23T21:20:19.209Z,12.82
2023-01-23T21:22:47.536Z,13.00
2023-01-23T21:25:15.392Z,12.82
2023-01-23T21:27:44.550Z,12.13
2023-01-23T21:30:13.089Z,13.43
2023-01-23T21:32:40.869Z,12.50
2023-01-23T21:35:09.571Z,11.98
2023-01-23T21:37:37.551Z,11.57
2023-01-23T21:40:06.402Z,12.73
2023-01-23T21:42:34.189Z,11.90
2023-01-23T21:45:03.365Z,11.73
2023-01-23T21:47:31.154Z,11.13
2023-01-23T21:49:58.894Z,12.23
2023-01-23T21:52:26.719Z,12.80
2023-01-23T21:54:56.119Z,12.48
2023-01-23T21:57:24.693Z,12.18
2023-01-23T22:00:06.430Z,12.07
2023-01-23T22:02:49.134Z,12.18
2023-01-23T22:07:48.522Z,12.25
2023-01-23T22:10:17.027Z,12.18
2023-01-23T22:12:44.803Z,12.32
2023-01-23T22:15:12.777Z,11.70
2023-01-23T22:17:41.916Z,12.07
2023-01-23T22:20:11.311Z,12.35
2023-01-23T22:22:39.096Z,12.00
2023-01-23T22:25:08.030Z,12.50
2023-01-23T22:27:36.074Z,12.70
2023-01-23T22:30:04.914Z,11.88
2023-01-23T22:32:34.445Z,12.10
2023-01-23T22:35:03.686Z,10.00
2023-01-23T22:37:31.782Z,12.98
2023-01-23T22:39:59.600Z,11.55
2023-01-23T22:42:27.411Z,12.25
2023-01-23T22:44:55.231Z,11.90
2023-01-23T22:47:23.025Z,12.25
2023-01-23T22:49:50.850Z,11.43
2023-01-23T22:52:20.025Z,12.35
2023-01-23T22:54:47.906Z,11.73
2023-01-23T22:57:15.705Z,11.43
2023-01-23T22:59:43.476Z,10.80
2023-01-23T23:02:11.283Z,10.85
2023-01-23T23:04:39.075Z,11.77
2023-01-23T23:07:06.882Z,11.82
2023-01-23T23:09:36.038Z,11.85
2023-01-23T23:12:03.981Z,11.15
2023-01-23T23:14:31.742Z,11.63
2023-01-23T23:16:59.761Z,11.20
2023-01-23T23:19:27.574Z,9.63
2023-01-23T23:21:55.408Z,10.63
2023-01-23T23:24:23.253Z,10.52
2023-01-23T23:26:52.445Z,11.45
2023-01-23T23:29:20.241Z,11.52
2023-01-23T23:31:51.560Z,11.27
2023-01-23T23:34:19.948Z,11.07
2023-01-23T23:36:47.950Z,9.90
2023-01-23T23:39:15.728Z,11.98
2023-01-23T23:41:43.522Z,11.30
2023-01-23T23:44:12.744Z,10.38
2023-01-23T23:46:40.565Z,11.70
2023-01-23T23:49:08.386Z,10.23
2023-01-23T23:51:36.141Z,11.38
2023-01-23T23:54:04.144Z,10.60
2023-01-23T23:56:32.207Z,10.45
2023-01-23T23:59:00.049Z,10.27
